createdAt,value
2023-02-17T00:00:27.324Z,3.39
2023-02-17T00:02:57.917Z,3.40
2023-02-17T00:05:27.418Z,3.46
2023-02-17T00:07:56.449Z,3.64
2023-02-17T00:10:25.489Z,3.57
2023-02-17T00:12:54.368Z,3.56
2023-02-17T00:15:24.855Z,3.51
2023-02-17T00:17:53.772Z,3.64
2023-02-17T00:20:22.770Z,3.20
2023-02-17T00:22:51.331Z,3.55
2023-02-17T00:25:20.282Z,3.22
2023-02-17T00:27:49.108Z,3.53
2023-02-17T00:30:18.502Z,3.66
2023-02-17T00:32:48.884Z,3.78
2023-02-17T00:35:17.551Z,3.79
2023-02-17T00:37:46.042Z,3.83
2023-02-17T00:40:15.712Z,3.57
2023-02-17T00:42:44.547Z,3.63
2023-02-17T00:45:13.483Z,3.55
2023-02-17T00:47:42.502Z,3.80
2023-02-17T00:50:13.373Z,3.89
2023-02-17T00:52:42.169Z,3.97
2023-02-17T00:55:11.113Z,3.82
2023-02-17T00:57:40.099Z,3.99
2023-02-17T01:00:10.524Z,4.10
2023-02-17T01:02:39.669Z,3.94
2023-02-17T01:05:09.294Z,3.85
2023-02-17T01:07:39.196Z,4.11
2023-02-17T01:10:09.455Z,4.19
2023-02-17T01:12:39.838Z,4.02
2023-02-17T01:15:09.482Z,4.25
2023-02-17T01:17:38.402Z,4.39
2023-02-17T01:20:08.830Z,4.43
2023-02-17T01:22:41.022Z,4.35
2023-02-17T01:25:10.252Z,4.37
2023-02-17T01:27:39.385Z,4.55
2023-02-17T01:30:09.278Z,4.55
2023-02-17T01:32:38.729Z,4.44
2023-02-17T01:35:08.341Z,4.46
2023-02-17T01:37:37.307Z,4.47
2023-02-17T01:40:09.038Z,4.68
2023-02-17T01:42:37.909Z,4.55
2023-02-17T01:45:33.504Z,4.64
2023-02-17T01:48:04.760Z,4.67
2023-02-17T01:50:36.285Z,4.32
2023-02-17T01:53:06.101Z,4.51
2023-02-17T01:55:36.930Z,4.54
2023-02-17T01:58:09.478Z,4.55
2023-02-17T02:00:38.445Z,4.32
2023-02-17T02:03:10.868Z,4.47
2023-02-17T02:05:40.296Z,4.65
2023-02-17T02:08:09.472Z,4.44
2023-02-17T02:10:39.514Z,4.35
2023-02-17T02:13:08.977Z,4.60
2023-02-17T02:15:42.154Z,4.59
2023-02-17T02:18:19.568Z,4.42
2023-02-17T02:21:09.733Z,4.67
2023-02-17T02:24:01.343Z,4.78
2023-02-17T02:26:58.123Z,4.86
2023-02-17T02:29:52.605Z,4.86
2023-02-17T02:32:52.898Z,4.92
2023-02-17T02:35:26.641Z,4.93
2023-02-17T02:38:01.170Z,4.93
2023-02-17T02:40:32.900Z,4.81
2023-02-17T02:43:04.033Z,4.81
2023-02-17T02:45:35.038Z,4.64
2023-02-17T02:48:05.779Z,5.03
2023-02-17T02:50:53.705Z,4.79
2023-02-17T02:53:45.907Z,5.00
2023-02-17T02:56:24.448Z,4.87
2023-02-17T02:59:01.607Z,5.06
2023-02-17T03:01:38.708Z,5.27
2023-02-17T03:04:14.301Z,4.99
2023-02-17T03:06:47.650Z,4.82
2023-02-17T03:09:21.046Z,4.74
2023-02-17T03:11:50.763Z,4.95
2023-02-17T03:14:22.673Z,4.83
2023-02-17T03:16:52.444Z,4.67
2023-02-17T03:19:25.342Z,4.70
2023-02-17T03:21:57.467Z,4.80
2023-02-17T03:24:26.761Z,4.70
2023-02-17T03:26:56.510Z,4.73
2023-02-17T03:29:25.398Z,4.89
2023-02-17T03:31:53.910Z,4.99
2023-02-17T03:34:24.494Z,5.00
2023-02-17T03:36:53.263Z,4.99
2023-02-17T03:39:22.088Z,4.80
2023-02-17T03:41:51.814Z,4.77
2023-02-17T03:44:20.694Z,4.77
2023-02-17T03:46:49.150Z,4.67
2023-02-17T03:49:18.471Z,4.56
2023-02-17T03:51:48.973Z,4.70
2023-02-17T03:54:18.184Z,4.75
2023-02-17T03:56:47.089Z,4.71
2023-02-17T03:59:16.047Z,4.79
2023-02-17T04:01:44.639Z,4.87
2023-02-17T04:04:13.623Z,5.01
2023-02-17T04:06:42.667Z,4.58
2023-02-17T04:09:13.035Z,4.65
2023-02-17T04:11:42.018Z,4.50
2023-02-17T04:14:10.942Z,4.80
2023-02-17T04:16:40.267Z,4.80
2023-02-17T04:19:09.277Z,4.88
2023-02-17T04:21:38.203Z,4.59
2023-02-17T04:24:07.646Z,4.82
2023-02-17T04:26:38.089Z,5.03
2023-02-17T04:29:06.779Z,4.83
2023-02-17T04:31:35.618Z,4.53
2023-02-17T04:34:04.835Z,4.77
2023-02-17T04:36:33.921Z,4.72
2023-02-17T04:39:02.966Z,4.60
2023-02-17T04:41:31.906Z,4.44
2023-02-17T04:44:02.417Z,4.23
2023-02-17T04:46:31.041Z,4.65
2023-02-17T04:49:00.120Z,4.57
2023-02-17T04:51:29.121Z,4.63
2023-02-17T04:53:58.185Z,4.64
2023-02-17T04:56:27.090Z,4.89
2023-02-17T04:58:55.596Z,4.76
2023-02-17T05:01:26.020Z,4.51
2023-02-17T05:03:54.587Z,4.81
2023-02-17T05:06:23.656Z,4.62
2023-02-17T05:08:54.168Z,4.65
2023-02-17T05:11:23.443Z,4.48
2023-02-17T05:13:52.098Z,4.73
2023-02-17T05:16:21.268Z,4.77
2023-02-17T05:18:51.810Z,5.01
2023-02-17T05:21:20.796Z,5.12
2023-02-17T05:23:49.689Z,5.03
2023-02-17T05:26:18.790Z,4.88
2023-02-17T05:28:47.664Z,4.63
2023-02-17T05:31:19.425Z,4.90
2023-02-17T05:33:48.583Z,4.84
2023-02-17T05:36:19.185Z,5.09
2023-02-17T05:38:50.012Z,4.97
2023-02-17T05:41:19.677Z,5.03
2023-02-17T05:43:49.006Z,5.09
2023-02-17T05:46:18.140Z,5.05
2023-02-17T05:48:50.214Z,5.22
2023-02-17T05:51:20.937Z,5.35
2023-02-17T05:53:50.299Z,5.27
2023-02-17T05:56:19.311Z,5.18
2023-02-17T05:58:48.107Z,4.90
2023-02-17T06:01:17.068Z,4.97
2023-02-17T06:03:46.092Z,5.27
2023-02-17T06:06:18.821Z,4.79
2023-02-17T06:08:49.253Z,4.54
2023-02-17T06:11:18.145Z,4.70
2023-02-17T06:13:46.950Z,4.43
2023-02-17T06:16:15.922Z,4.35
2023-02-17T06:18:45.570Z,4.83
2023-02-17T06:21:14.749Z,4.79
2023-02-17T06:23:43.762Z,4.71
2023-02-17T06:26:14.734Z,4.82
2023-02-17T06:28:43.423Z,4.65
2023-02-17T06:31:12.532Z,5.06
2023-02-17T06:33:41.453Z,4.93
2023-02-17T06:36:10.648Z,4.44
2023-02-17T06:38:39.613Z,4.77
2023-02-17T06:41:08.496Z,4.79
2023-02-17T06:43:38.409Z,4.79
2023-02-17T06:46:09.060Z,4.86
2023-02-17T06:48:38.437Z,4.39
2023-02-17T06:51:07.592Z,4.87
2023-02-17T06:53:36.857Z,4.70
2023-02-17T06:56:06.670Z,4.04
2023-02-17T06:58:36.722Z,4.54
2023-02-17T07:01:08.940Z,4.38
2023-02-17T07:03:38.352Z,4.23
2023-02-17T07:06:08.196Z,4.58
2023-02-17T07:08:37.697Z,4.84
2023-02-17T07:11:07.519Z,5.13
2023-02-17T07:13:36.321Z,5.18
2023-02-17T07:16:09.471Z,5.19
2023-02-17T07:18:39.020Z,5.44
2023-02-17T07:21:09.012Z,5.54
2023-02-17T07:23:40.567Z,4.46
2023-02-17T07:26:10.985Z,5.08
2023-02-17T07:28:41.080Z,5.90
2023-02-17T07:31:13.010Z,5.61
2023-02-17T07:33:42.662Z,5.02
2023-02-17T07:36:13.446Z,5.36
2023-02-17T07:38:43.402Z,5.88
2023-02-17T07:41:14.842Z,6.02
2023-02-17T07:43:43.975Z,5.32
2023-02-17T07:46:14.840Z,5.31
2023-02-17T07:48:43.919Z,5.53
2023-02-17T07:51:14.230Z,5.58
2023-02-17T07:53:43.024Z,5.94
2023-02-17T07:56:13.556Z,6.39
2023-02-17T07:58:43.238Z,5.96
2023-02-17T08:01:14.860Z,6.62
2023-02-17T08:03:44.222Z,6.53
2023-02-17T08:06:13.808Z,6.29
2023-02-17T08:09:00.969Z,6.55
2023-02-17T08:11:50.002Z,6.42
2023-02-17T08:14:19.439Z,6.24
2023-02-17T08:16:49.696Z,6.81
2023-02-17T08:19:18.908Z,6.59
2023-02-17T08:21:48.321Z,6.56
2023-02-17T08:24:17.473Z,6.61
2023-02-17T08:26:47.207Z,6.41
2023-02-17T08:29:16.296Z,7.26
2023-02-17T08:31:45.172Z,7.28
2023-02-17T08:34:15.980Z,7.55
2023-02-17T08:36:44.959Z,7.45
2023-02-17T08:39:16.197Z,7.33
2023-02-17T08:41:46.632Z,7.09
2023-02-17T08:44:15.851Z,7.30
2023-02-17T08:46:45.555Z,7.21
2023-02-17T08:49:16.498Z,7.39
2023-02-17T08:51:45.858Z,7.42
2023-02-17T08:54:15.250Z,7.37
2023-02-17T08:56:44.887Z,7.75
2023-02-17T08:59:14.334Z,7.44
2023-02-17T09:01:43.517Z,7.22
2023-02-17T09:04:16.829Z,6.95
2023-02-17T09:06:48.523Z,6.86
2023-02-17T09:09:19.070Z,6.62
2023-02-17T09:11:48.176Z,6.85
2023-02-17T09:14:17.212Z,6.99
2023-02-17T09:16:45.834Z,7.38
2023-02-17T09:19:17.270Z,6.76
2023-02-17T09:21:46.376Z,6.66
2023-02-17T09:24:15.501Z,6.62
2023-02-17T09:26:44.727Z,6.74
2023-02-17T09:29:13.612Z,6.36
2023-02-17T09:31:42.294Z,6.78
2023-02-17T09:34:11.349Z,6.15
2023-02-17T09:36:43.275Z,6.89
2023-02-17T09:39:14.190Z,7.20
2023-02-17T09:41:45.086Z,7.28
2023-02-17T09:44:21.472Z,7.36
2023-02-17T09:47:01.766Z,7.10
2023-02-17T09:49:36.508Z,7.51
2023-02-17T09:52:11.949Z,6.94
2023-02-17T09:54:46.120Z,7.27
2023-02-17T09:57:20.737Z,7.35
2023-02-17T09:59:53.749Z,6.90
2023-02-17T10:02:31.062Z,7.57
2023-02-17T10:05:02.795Z,7.06
2023-02-17T10:07:36.846Z,7.16
2023-02-17T10:10:09.993Z,7.18
2023-02-17T10:12:41.748Z,7.20
2023-02-17T10:15:17.840Z,6.72
2023-02-17T10:17:53.039Z,6.98
2023-02-17T10:20:25.576Z,6.76
2023-02-17T10:22:58.597Z,6.76
2023-02-17T10:25:42.571Z,7.00
2023-02-17T10:28:16.618Z,6.75
2023-02-17T10:30:51.192Z,6.92
2023-02-17T10:33:25.365Z,7.11
2023-02-17T10:35:55.555Z,7.01
2023-02-17T10:38:38.484Z,7.04
2023-02-17T10:41:11.613Z,7.03
2023-02-17T10:43:40.850Z,6.61
2023-02-17T10:46:10.081Z,6.95
2023-02-17T10:48:42.333Z,7.17
2023-02-17T10:51:16.242Z,7.08
2023-02-17T10:53:49.889Z,7.52
2023-02-17T10:56:21.366Z,7.51
2023-02-17T10:58:53.473Z,6.85
2023-02-17T11:01:23.399Z,7.04
2023-02-17T11:04:01.633Z,7.41
2023-02-17T11:06:31.512Z,6.56
2023-02-17T11:09:05.748Z,6.77
2023-02-17T11:11:38.006Z,7.21
2023-02-17T11:14:14.184Z,6.41
2023-02-17T11:16:44.826Z,6.41
2023-02-17T11:19:23.418Z,6.70
2023-02-17T11:21:53.450Z,6.74
2023-02-17T11:24:24.530Z,5.41
2023-02-17T11:26:58.450Z,6.31
2023-02-17T11:29:28.060Z,6.37
2023-02-17T11:31:58.675Z,6.36
2023-02-17T11:34:30.278Z,6.45
2023-02-17T11:37:01.655Z,6.08
2023-02-17T11:39:32.202Z,6.56
2023-02-17T11:42:01.180Z,6.47
2023-02-17T11:44:30.252Z,6.33
2023-02-17T11:47:06.099Z,6.84
2023-02-17T11:49:58.872Z,6.57
2023-02-17T11:52:36.425Z,6.49
2023-02-17T11:55:19.979Z,6.41
2023-02-17T11:57:58.985Z,6.21
2023-02-17T12:00:32.579Z,6.33
2023-02-17T12:03:22.841Z,6.98
2023-02-17T12:05:57.636Z,6.98
2023-02-17T12:08:38.498Z,7.13
2023-02-17T12:11:17.922Z,7.01
2023-02-17T12:13:56.106Z,6.78
2023-02-17T12:16:43.348Z,6.66
2023-02-17T12:19:26.244Z,6.62
2023-02-17T12:22:03.183Z,6.95
2023-02-17T12:24:42.469Z,7.01
2023-02-17T12:27:26.497Z,6.76
2023-02-17T12:30:05.580Z,6.95
2023-02-17T12:32:46.993Z,6.95
2023-02-17T12:35:18.836Z,7.34
2023-02-17T12:37:51.179Z,6.67
2023-02-17T12:40:30.666Z,7.96
2023-02-17T12:43:03.378Z,7.82
2023-02-17T12:45:39.928Z,7.74
2023-02-17T12:48:17.122Z,7.77
2023-02-17T12:50:53.251Z,7.94
2023-02-17T12:53:26.947Z,7.89
2023-02-17T12:55:58.593Z,7.02
2023-02-17T12:58:30.029Z,7.42
2023-02-17T13:01:06.878Z,7.80
2023-02-17T13:03:37.906Z,7.53
2023-02-17T13:06:12.937Z,7.38
2023-02-17T13:08:45.653Z,7.05
2023-02-17T13:11:26.298Z,7.47
2023-02-17T13:13:56.346Z,7.62
2023-02-17T13:16:25.367Z,7.07
2023-02-17T13:18:54.323Z,7.11
2023-02-17T13:21:33.686Z,7.13
2023-02-17T13:24:04.452Z,7.39
2023-02-17T13:26:35.243Z,7.79
2023-02-17T13:29:35.760Z,7.87
2023-02-17T13:32:06.174Z,7.96
2023-02-17T13:34:38.464Z,7.48
2023-02-17T13:37:22.533Z,7.53
2023-02-17T13:39:51.546Z,7.32
2023-02-17T13:42:38.532Z,7.11
2023-02-17T13:45:18.093Z,7.08
2023-02-17T13:47:48.526Z,7.19
2023-02-17T13:50:32.662Z,7.35
2023-02-17T13:53:02.013Z,6.94
2023-02-17T13:55:31.060Z,7.44
2023-02-17T13:58:00.954Z,7.17
2023-02-17T14:00:33.441Z,7.17
2023-02-17T14:03:07.625Z,7.69
2023-02-17T14:05:40.032Z,7.23
2023-02-17T14:08:14.729Z,7.38
2023-02-17T14:10:43.619Z,7.24
2023-02-17T14:13:13.307Z,7.25
2023-02-17T14:15:54.709Z,7.05
2023-02-17T14:18:31.824Z,7.41
2023-02-17T14:21:07.889Z,7.71
2023-02-17T14:23:49.179Z,7.03
2023-02-17T14:26:29.073Z,7.20
2023-02-17T14:28:59.402Z,7.41
2023-02-17T14:31:30.619Z,7.11
2023-02-17T14:34:02.849Z,7.47
2023-02-17T14:36:36.981Z,6.95
2023-02-17T14:39:07.927Z,7.57
2023-02-17T14:41:37.245Z,7.01
2023-02-17T14:44:06.926Z,6.68
2023-02-17T14:46:37.466Z,6.55
2023-02-17T14:49:06.631Z,6.73
2023-02-17T14:51:38.106Z,6.40
2023-02-17T14:54:14.305Z,6.42
2023-02-17T14:56:46.602Z,7.02
2023-02-17T14:59:15.899Z,7.14
2023-02-17T15:01:46.063Z,6.95
2023-02-17T15:04:15.965Z,6.67
2023-02-17T15:06:48.076Z,7.17
2023-02-17T15:09:19.083Z,6.66
2023-02-17T15:11:49.307Z,6.39
2023-02-17T15:14:21.336Z,6.78
2023-02-17T15:16:52.476Z,6.59
2023-02-17T15:19:21.657Z,6.78
2023-02-17T15:21:51.834Z,7.20
2023-02-17T15:24:25.642Z,6.97
2023-02-17T15:26:56.435Z,6.48
2023-02-17T15:29:27.378Z,7.16
2023-02-17T15:32:01.617Z,7.87
2023-02-17T15:34:33.390Z,6.99
2023-02-17T15:37:03.011Z,7.26
2023-02-17T15:39:32.267Z,8.07
2023-02-17T15:42:03.869Z,7.56
2023-02-17T15:44:37.504Z,7.94
2023-02-17T15:47:13.766Z,7.53
2023-02-17T15:49:42.573Z,7.32
2023-02-17T15:52:13.865Z,7.39
2023-02-17T15:54:43.720Z,7.51
2023-02-17T15:57:21.678Z,7.70
2023-02-17T15:59:54.986Z,7.42
2023-02-17T16:02:26.683Z,7.30
2023-02-17T16:04:55.501Z,7.89
2023-02-17T16:07:25.366Z,7.16
2023-02-17T16:09:54.518Z,7.49
2023-02-17T16:12:27.357Z,7.28
2023-02-17T16:14:57.122Z,7.57
2023-02-17T16:17:28.165Z,8.05
2023-02-17T16:19:56.903Z,8.04
2023-02-17T16:22:26.290Z,7.42
2023-02-17T16:24:57.676Z,7.61
2023-02-17T16:27:29.957Z,8.20
2023-02-17T16:29:59.290Z,7.59
2023-02-17T16:32:29.941Z,8.24
2023-02-17T16:34:59.679Z,7.46
2023-02-17T16:37:28.754Z,7.34
2023-02-17T16:39:57.899Z,7.46
2023-02-17T16:42:27.516Z,7.53
2023-02-17T16:44:56.754Z,7.18
2023-02-17T16:47:25.825Z,7.52
2023-02-17T16:49:56.090Z,7.84
2023-02-17T16:52:26.666Z,7.74
2023-02-17T16:54:57.026Z,7.28
2023-02-17T16:57:26.559Z,8.33
2023-02-17T16:59:56.069Z,7.80
2023-02-17T17:02:26.521Z,8.03
2023-02-17T17:04:57.532Z,7.93
2023-02-17T17:07:31.004Z,8.11
2023-02-17T17:10:15.186Z,7.94
2023-02-17T17:12:45.722Z,7.62
2023-02-17T17:15:16.421Z,7.86
2023-02-17T17:17:47.048Z,7.74
2023-02-17T17:20:20.274Z,7.97
2023-02-17T17:22:49.496Z,7.56
2023-02-17T17:25:19.025Z,7.81
2023-02-17T17:27:48.468Z,8.05
2023-02-17T17:30:21.904Z,7.42
2023-02-17T17:32:52.681Z,8.24
2023-02-17T17:35:23.480Z,8.53
2023-02-17T17:37:51.987Z,8.46
2023-02-17T17:40:24.323Z,8.32
2023-02-17T17:42:53.658Z,7.54
2023-02-17T17:45:23.877Z,7.79
2023-02-17T17:47:53.088Z,7.99
2023-02-17T17:50:26.027Z,8.97
2023-02-17T17:52:54.862Z,8.44
2023-02-17T17:55:25.093Z,7.53
2023-02-17T17:57:53.916Z,8.62
2023-02-17T18:00:23.308Z,8.75
2023-02-17T18:02:52.420Z,8.21
2023-02-17T18:05:24.338Z,8.54
2023-02-17T18:07:53.332Z,8.06
2023-02-17T18:10:22.683Z,8.46
2023-02-17T18:12:53.233Z,8.44
2023-02-17T18:15:22.427Z,8.35
2023-02-17T18:17:52.604Z,8.37
2023-02-17T18:20:21.802Z,8.25
2023-02-17T18:22:53.284Z,8.25
2023-02-17T18:25:23.064Z,8.62
2023-02-17T18:27:52.357Z,8.51
2023-02-17T18:30:23.583Z,8.25
2023-02-17T18:32:52.974Z,8.36
2023-02-17T18:35:22.534Z,7.96
2023-02-17T18:37:52.717Z,8.24
2023-02-17T18:40:23.264Z,8.53
2023-02-17T18:42:52.422Z,8.39
2023-02-17T18:45:21.835Z,8.56
2023-02-17T18:47:51.032Z,8.03
2023-02-17T18:50:20.439Z,8.67
2023-02-17T18:52:49.308Z,8.19
2023-02-17T18:55:20.159Z,8.84
2023-02-17T18:57:49.322Z,8.77
2023-02-17T19:00:19.373Z,8.50
2023-02-17T19:02:48.589Z,8.82
2023-02-17T19:05:18.474Z,9.04
2023-02-17T19:07:47.468Z,8.77
2023-02-17T19:10:17.081Z,9.39
2023-02-17T19:12:47.849Z,9.02
2023-02-17T19:15:20.882Z,8.78
2023-02-17T19:17:51.141Z,8.56
2023-02-17T19:20:20.367Z,9.09
2023-02-17T19:22:49.014Z,8.86
2023-02-17T19:25:18.115Z,8.71
2023-02-17T19:27:48.934Z,8.98
2023-02-17T19:30:17.997Z,8.84
2023-02-17T19:32:47.228Z,8.94
2023-02-17T19:35:16.358Z,9.11
2023-02-17T19:37:44.985Z,9.33
2023-02-17T19:40:14.138Z,9.04
2023-02-17T19:42:43.256Z,9.44
2023-02-17T19:45:13.793Z,9.38
2023-02-17T19:47:42.791Z,9.64
2023-02-17T19:50:12.668Z,9.79
2023-02-17T19:52:41.596Z,9.62
2023-02-17T19:55:10.964Z,9.38
2023-02-17T19:57:40.222Z,9.36
2023-02-17T20:00:11.619Z,9.28
2023-02-17T20:02:42.201Z,9.47
2023-02-17T20:05:11.316Z,9.73
2023-02-17T20:07:40.064Z,9.86
2023-02-17T20:10:12.577Z,9.80
2023-02-17T20:12:42.000Z,9.75
2023-02-17T20:15:11.500Z,9.76
2023-02-17T20:17:42.319Z,9.53
2023-02-17T20:20:12.381Z,9.61
2023-02-17T20:22:41.264Z,9.69
2023-02-17T20:25:10.571Z,9.88
2023-02-17T20:27:39.742Z,9.63
2023-02-17T20:30:10.320Z,9.91
2023-02-17T20:32:39.568Z,9.81
2023-02-17T20:35:12.877Z,10.03
2023-02-17T20:37:41.715Z,9.73
2023-02-17T20:40:11.435Z,9.52
2023-02-17T20:42:40.506Z,9.70
2023-02-17T20:45:10.027Z,9.49
2023-02-17T20:47:39.105Z,9.92
2023-02-17T20:50:12.523Z,9.87
2023-02-17T20:52:41.181Z,9.78
2023-02-17T20:55:10.447Z,9.40
2023-02-17T20:57:39.489Z,10.03
2023-02-17T21:00:10.445Z,9.84
2023-02-17T21:02:39.595Z,10.13
2023-02-17T21:05:10.833Z,9.89
2023-02-17T21:07:40.605Z,9.91
2023-02-17T21:10:16.808Z,10.02
2023-02-17T21:12:46.388Z,10.17
2023-02-17T21:15:15.932Z,10.11
2023-02-17T21:17:46.390Z,9.82
2023-02-17T21:20:18.924Z,9.92
2023-02-17T21:22:47.841Z,10.11
2023-02-17T21:25:16.844Z,9.92
2023-02-17T21:27:46.624Z,9.88
2023-02-17T21:30:16.423Z,9.91
2023-02-17T21:32:45.524Z,10.20
2023-02-17T21:35:14.554Z,10.22
2023-02-17T21:37:44.941Z,9.47
2023-02-17T21:40:14.599Z,9.44
2023-02-17T21:43:00.957Z,9.65
2023-02-17T21:45:30.220Z,9.66
2023-02-17T21:47:59.333Z,9.71
2023-02-17T21:50:28.423Z,9.70
2023-02-17T21:52:58.511Z,9.56
2023-02-17T21:55:27.556Z,9.37
2023-02-17T21:57:56.634Z,9.34
2023-02-17T22:00:26.443Z,9.17
2023-02-17T22:02:55.467Z,9.57
2023-02-17T22:05:24.633Z,9.85
2023-02-17T22:07:53.291Z,9.36
2023-02-17T22:10:23.797Z,9.44
2023-02-17T22:12:53.047Z,9.39
2023-02-17T22:15:22.236Z,9.93
2023-02-17T22:17:51.234Z,9.56
2023-02-17T22:20:23.376Z,9.40
2023-02-17T22:22:52.896Z,9.26
2023-02-17T22:25:23.796Z,9.86
2023-02-17T22:27:52.924Z,9.75
2023-02-17T22:30:22.054Z,9.31
2023-02-17T22:32:51.252Z,9.14
2023-02-17T22:35:22.159Z,9.27
2023-02-17T22:37:50.898Z,9.95
2023-02-17T22:40:20.173Z,9.17
2023-02-17T22:42:50.562Z,9.83
2023-02-17T22:45:19.644Z,9.69
2023-02-17T22:47:48.673Z,9.82
2023-02-17T22:50:18.338Z,9.67
2023-02-17T22:52:47.134Z,9.57
2023-02-17T22:55:16.145Z,9.41
2023-02-17T22:57:47.397Z,8.76
2023-02-17T23:00:19.194Z,9.31
2023-02-17T23:02:48.260Z,9.46
2023-02-17T23:05:17.570Z,9.82
2023-02-17T23:07:46.271Z,9.15
2023-02-17T23:10:15.359Z,9.33
2023-02-17T23:12:44.353Z,9.09
2023-02-17T23:15:13.843Z,8.83
2023-02-17T23:17:59.734Z,8.80
2023-02-17T23:20:30.253Z,9.16
2023-02-17T23:22:58.946Z,8.74
2023-02-17T23:25:28.117Z,9.02
2023-02-17T23:27:57.221Z,8.88
2023-02-17T23:30:26.995Z,9.45
2023-02-17T23:32:57.545Z,8.76
2023-02-17T23:35:27.338Z,9.17
2023-02-17T23:37:55.989Z,9.12
2023-02-17T23:40:24.988Z,8.52
2023-02-17T23:42:54.059Z,8.72
2023-02-17T23:45:23.304Z,8.12
2023-02-17T23:47:52.283Z,8.32
2023-02-17T23:50:22.686Z,8.02
2023-02-17T23:52:51.246Z,8.27
2023-02-17T23:55:21.715Z,8.24
2023-02-17T23:57:51.874Z,8.19
